createdAt,value
2022-10-18T00:00:08.093Z,10.60
2022-10-18T00:02:38.103Z,10.60
2022-10-18T00:05:06.242Z,10.70
2022-10-18T00:07:33.292Z,10.70
2022-10-18T00:10:00.239Z,10.90
2022-10-18T00:12:27.153Z,11.00
2022-10-18T00:14:54.107Z,11.00
2022-10-18T00:17:20.881Z,11.10
2022-10-18T00:19:48.295Z,11.20
2022-10-18T00:22:15.151Z,11.30
2022-10-18T00:24:41.987Z,11.30
2022-10-18T00:27:08.746Z,11.30
2022-10-18T00:29:35.807Z,11.30
2022-10-18T00:32:02.694Z,11.50
2022-10-18T00:34:29.512Z,11.50
2022-10-18T00:36:56.421Z,11.50
2022-10-18T00:39:23.182Z,11.60
2022-10-18T00:41:50.800Z,11.60
2022-10-18T00:44:17.569Z,11.50
2022-10-18T00:46:47.332Z,11.60
2022-10-18T00:49:44.928Z,11.60
2022-10-18T00:52:27.592Z,11.60
2022-10-18T00:54:56.709Z,11.60
2022-10-18T00:57:24.580Z,11.70
2022-10-18T00:59:51.853Z,11.70
2022-10-18T01:02:18.907Z,11.80
2022-10-18T01:04:47.284Z,11.80
2022-10-18T01:07:22.537Z,11.80
2022-10-18T01:10:00.372Z,11.80
2022-10-18T01:12:54.915Z,11.80
2022-10-18T01:15:29.162Z,11.90
2022-10-18T01:18:19.146Z,12.00
2022-10-18T01:21:03.465Z,12.10
2022-10-18T01:23:52.399Z,12.10
2022-10-18T01:27:02.456Z,12.20
2022-10-18T01:30:06.003Z,12.20
2022-10-18T01:32:41.430Z,12.30
2022-10-18T01:35:14.256Z,12.30
2022-10-18T01:37:45.206Z,12.30
2022-10-18T01:40:14.611Z,12.30
2022-10-18T01:42:42.175Z,12.30
2022-10-18T01:45:10.381Z,12.30
2022-10-18T01:47:37.504Z,12.30
2022-10-18T01:50:06.388Z,12.30
2022-10-18T01:52:33.714Z,12.40
2022-10-18T01:55:02.121Z,12.50
2022-10-18T01:57:34.931Z,12.40
2022-10-18T02:00:16.283Z,12.50
2022-10-18T02:03:01.662Z,12.50
2022-10-18T02:05:34.724Z,12.50
2022-10-18T02:08:23.953Z,12.40
2022-10-18T02:11:02.387Z,12.40
2022-10-18T02:13:57.792Z,12.40
2022-10-18T02:16:48.803Z,12.40
2022-10-18T02:19:33.138Z,12.40
2022-10-18T02:22:01.171Z,12.40
2022-10-18T02:24:36.141Z,12.40
2022-10-18T02:27:03.189Z,12.40
2022-10-18T02:29:31.898Z,12.40
2022-10-18T02:32:19.670Z,12.40
2022-10-18T02:34:58.618Z,12.40
2022-10-18T02:37:30.886Z,12.40
2022-10-18T02:39:58.354Z,12.40
2022-10-18T02:42:25.223Z,12.40
2022-10-18T02:44:52.006Z,12.40
2022-10-18T02:47:18.900Z,12.40
2022-10-18T02:49:46.035Z,12.40
2022-10-18T02:52:12.839Z,12.40
2022-10-18T02:54:39.904Z,12.40
2022-10-18T02:57:06.696Z,12.40
2022-10-18T02:59:33.515Z,12.40
2022-10-18T03:02:00.327Z,12.50
2022-10-18T03:06:58.925Z,12.50
2022-10-18T03:09:25.822Z,12.50
2022-10-18T03:11:52.650Z,12.50
2022-10-18T03:14:19.454Z,12.50
2022-10-18T03:16:46.261Z,12.50
2022-10-18T03:19:13.095Z,12.50
2022-10-18T03:21:39.922Z,12.50
2022-10-18T03:24:06.896Z,12.40
2022-10-18T03:26:33.792Z,12.40
2022-10-18T03:29:00.749Z,12.40
2022-10-18T03:31:27.604Z,12.40
2022-10-18T03:33:54.462Z,12.40
2022-10-18T03:36:21.226Z,12.50
2022-10-18T03:38:48.040Z,12.40
2022-10-18T03:41:14.884Z,12.30
2022-10-18T03:43:41.677Z,12.30
2022-10-18T03:46:08.564Z,12.20
2022-10-18T03:48:35.362Z,12.20
2022-10-18T03:51:02.150Z,12.30
2022-10-18T03:53:29.033Z,12.30
2022-10-18T03:55:56.259Z,12.40
2022-10-18T03:58:23.854Z,12.40
2022-10-18T04:00:52.317Z,12.30
2022-10-18T04:03:20.646Z,12.30
2022-10-18T04:05:48.600Z,12.40
2022-10-18T04:08:16.666Z,12.40
2022-10-18T04:10:43.511Z,12.50
2022-10-18T04:13:11.170Z,12.50
2022-10-18T04:15:38.458Z,12.60
2022-10-18T04:18:05.265Z,12.60
2022-10-18T04:20:32.015Z,12.70
2022-10-18T04:22:58.896Z,12.80
2022-10-18T04:25:25.704Z,12.80
2022-10-18T04:27:52.722Z,12.90
2022-10-18T04:30:19.623Z,12.90
2022-10-18T04:32:46.390Z,12.90
2022-10-18T04:35:15.698Z,12.90
2022-10-18T04:37:42.536Z,13.00
2022-10-18T04:40:09.875Z,13.10
2022-10-18T04:42:36.670Z,13.10
2022-10-18T04:45:03.591Z,13.10
2022-10-18T04:47:30.628Z,13.10
2022-10-18T04:49:57.721Z,13.10
2022-10-18T04:52:24.469Z,13.20
2022-10-18T04:54:51.483Z,13.20
2022-10-18T04:57:18.267Z,13.10
2022-10-18T04:59:45.062Z,13.00
2022-10-18T05:02:12.008Z,12.90
2022-10-18T05:04:39.102Z,12.90
2022-10-18T05:07:06.616Z,12.80
2022-10-18T05:09:33.792Z,12.80
2022-10-18T05:12:00.609Z,12.80
2022-10-18T05:14:27.552Z,12.70
2022-10-18T05:16:54.469Z,12.70
2022-10-18T05:19:21.682Z,12.50
2022-10-18T05:21:48.460Z,12.40
2022-10-18T05:24:15.274Z,12.20
2022-10-18T05:26:42.200Z,12.00
2022-10-18T05:29:09.275Z,11.70
2022-10-18T05:31:36.180Z,11.60
2022-10-18T05:34:03.439Z,11.50
2022-10-18T05:36:30.211Z,11.40
2022-10-18T05:39:00.882Z,11.20
2022-10-18T05:41:31.033Z,11.10
2022-10-18T05:43:57.878Z,11.20
2022-10-18T05:46:24.957Z,11.30
2022-10-18T05:48:52.223Z,11.40
2022-10-18T05:51:19.582Z,11.60
2022-10-18T05:53:46.488Z,11.70
2022-10-18T05:56:14.425Z,11.90
2022-10-18T05:58:42.532Z,12.10
2022-10-18T06:01:10.468Z,12.10
2022-10-18T06:03:37.389Z,12.20
2022-10-18T06:06:06.666Z,12.30
2022-10-18T06:08:34.636Z,12.40
2022-10-18T06:11:14.042Z,12.70
2022-10-18T06:13:42.588Z,13.00
2022-10-18T06:16:10.846Z,13.20
2022-10-18T06:18:38.355Z,13.40
2022-10-18T06:21:05.778Z,13.60
2022-10-18T06:23:32.675Z,13.60
2022-10-18T06:26:01.880Z,13.70
2022-10-18T06:28:29.872Z,13.90
2022-10-18T06:30:58.026Z,14.10
2022-10-18T06:33:27.852Z,14.50
2022-10-18T06:35:59.276Z,15.00
2022-10-18T06:38:27.375Z,15.30
2022-10-18T06:40:54.963Z,15.80
2022-10-18T06:43:22.234Z,16.00
2022-10-18T06:45:50.143Z,16.20
2022-10-18T06:51:02.302Z,15.90
2022-10-18T06:53:33.945Z,15.30
2022-10-18T06:56:02.580Z,14.90
2022-10-18T06:58:30.566Z,14.80
2022-10-18T07:00:58.703Z,14.60
2022-10-18T07:03:26.321Z,14.40
2022-10-18T07:05:53.123Z,14.40
2022-10-18T07:08:19.924Z,14.40
2022-10-18T07:10:53.466Z,14.30
2022-10-18T07:13:31.915Z,14.30
2022-10-18T07:16:11.602Z,14.30
2022-10-18T07:18:43.625Z,14.30
2022-10-18T07:21:13.107Z,14.40
2022-10-18T07:23:42.636Z,14.40
2022-10-18T07:26:29.759Z,14.50
2022-10-18T07:29:00.715Z,14.60
2022-10-18T07:31:28.913Z,14.80
2022-10-18T07:33:55.762Z,15.00
2022-10-18T07:36:22.833Z,15.40
2022-10-18T07:38:50.138Z,15.80
2022-10-18T07:41:17.028Z,16.30
2022-10-18T07:43:46.596Z,16.60
2022-10-18T07:46:14.719Z,16.50
2022-10-18T07:48:41.775Z,16.40
2022-10-18T07:51:09.059Z,17.00
2022-10-18T07:53:36.604Z,17.50
2022-10-18T07:56:09.676Z,17.40
2022-10-18T07:58:37.158Z,17.60
2022-10-18T08:01:05.468Z,17.90
2022-10-18T08:03:32.427Z,18.00
2022-10-18T08:05:59.671Z,18.20
2022-10-18T08:08:28.261Z,18.40
2022-10-18T08:10:55.196Z,18.50
2022-10-18T08:13:24.360Z,18.50
2022-10-18T08:15:51.141Z,18.30
2022-10-18T08:18:18.009Z,18.50
2022-10-18T08:20:45.694Z,18.60
2022-10-18T08:23:12.845Z,18.30
2022-10-18T08:25:39.673Z,18.00
2022-10-18T08:28:07.558Z,18.20
2022-10-18T08:30:35.843Z,18.90
2022-10-18T08:33:03.744Z,19.60
2022-10-18T08:35:31.806Z,20.60
2022-10-18T08:37:59.378Z,21.00
2022-10-18T08:40:27.636Z,21.20
2022-10-18T08:43:21.439Z,21.90
2022-10-18T08:45:51.001Z,22.10
2022-10-18T08:48:29.819Z,22.30
2022-10-18T08:51:00.978Z,22.50
2022-10-18T08:53:36.223Z,23.30
2022-10-18T08:56:15.661Z,23.70
2022-10-18T08:58:46.765Z,24.10
2022-10-18T09:01:34.996Z,24.20
2022-10-18T09:04:36.616Z,23.70
2022-10-18T09:07:41.037Z,22.70
2022-10-18T09:10:17.180Z,21.70
2022-10-18T09:13:07.945Z,21.10
2022-10-18T09:15:51.953Z,20.70
2022-10-18T09:18:37.381Z,20.70
2022-10-18T09:21:19.209Z,20.60
2022-10-18T09:23:49.408Z,21.40
2022-10-18T09:26:26.056Z,21.50
2022-10-18T09:29:23.772Z,22.10
2022-10-18T09:32:16.082Z,22.10
2022-10-18T09:35:13.453Z,22.00
2022-10-18T09:37:41.389Z,22.30
2022-10-18T09:40:22.893Z,23.00
2022-10-18T09:43:00.224Z,23.80
2022-10-18T09:45:39.555Z,24.40
2022-10-18T09:48:11.808Z,24.40
2022-10-18T09:50:40.850Z,24.10
2022-10-18T09:53:25.387Z,24.10
2022-10-18T09:56:17.701Z,24.40
2022-10-18T09:58:47.036Z,24.50
2022-10-18T10:01:18.902Z,24.30
2022-10-18T10:03:45.807Z,23.60
2022-10-18T10:06:12.579Z,22.40
2022-10-18T10:08:49.723Z,21.80
2022-10-18T10:11:33.865Z,22.10
2022-10-18T10:14:26.071Z,22.50
2022-10-18T10:17:03.353Z,22.60
2022-10-18T10:19:52.536Z,22.70
2022-10-18T10:22:27.924Z,23.20
2022-10-18T10:24:55.370Z,24.40
2022-10-18T10:27:41.135Z,24.80
2022-10-18T10:30:27.986Z,25.20
2022-10-18T10:32:56.525Z,25.60
2022-10-18T10:35:54.266Z,26.40
2022-10-18T10:38:28.211Z,25.80
2022-10-18T10:40:55.732Z,25.90
2022-10-18T10:43:37.512Z,26.40
2022-10-18T10:46:15.606Z,26.70
2022-10-18T10:48:47.054Z,26.60
2022-10-18T10:51:16.119Z,26.50
2022-10-18T10:54:13.608Z,26.10
2022-10-18T10:57:11.387Z,26.40
2022-10-18T10:59:49.665Z,26.90
2022-10-18T11:02:20.621Z,27.50
2022-10-18T11:04:52.239Z,27.70
2022-10-18T11:07:42.203Z,27.60
2022-10-18T11:10:12.415Z,27.60
2022-10-18T11:12:45.727Z,26.50
2022-10-18T11:15:18.555Z,25.90
2022-10-18T11:18:00.937Z,25.40
2022-10-18T11:20:59.959Z,25.20
2022-10-18T11:23:33.967Z,25.70
2022-10-18T11:26:12.959Z,25.70
2022-10-18T11:29:13.216Z,25.60
2022-10-18T11:31:42.638Z,26.40
2022-10-18T11:34:44.974Z,26.40
2022-10-18T11:37:40.466Z,26.60
2022-10-18T11:40:26.525Z,26.50
2022-10-18T11:43:21.133Z,26.20
2022-10-18T11:46:08.627Z,26.60
2022-10-18T11:48:59.395Z,26.60
2022-10-18T11:52:06.762Z,26.40
2022-10-18T11:54:49.839Z,26.40
2022-10-18T11:57:42.882Z,26.50
2022-10-18T12:00:12.698Z,26.50
2022-10-18T12:03:13.868Z,26.60
2022-10-18T12:05:43.552Z,26.40
2022-10-18T12:08:55.409Z,26.30
2022-10-18T12:11:32.292Z,26.60
2022-10-18T12:14:24.249Z,25.50
2022-10-18T12:17:02.825Z,25.10
2022-10-18T12:19:40.731Z,25.80
2022-10-18T12:22:30.358Z,26.00
2022-10-18T12:24:57.342Z,26.00
2022-10-18T12:27:40.171Z,26.30
2022-10-18T12:30:20.268Z,26.20
2022-10-18T12:33:03.391Z,26.00
2022-10-18T12:36:04.187Z,26.20
2022-10-18T12:38:35.644Z,25.90
2022-10-18T12:41:04.243Z,26.60
2022-10-18T12:43:39.366Z,26.40
2022-10-18T12:46:13.221Z,26.20
2022-10-18T12:48:45.378Z,26.30
2022-10-18T12:51:16.874Z,26.50
2022-10-18T12:53:47.520Z,26.60
2022-10-18T12:56:29.586Z,25.40
2022-10-18T12:59:17.019Z,25.60
2022-10-18T13:01:53.088Z,25.50
2022-10-18T13:04:28.954Z,25.50
2022-10-18T13:07:03.035Z,25.00
2022-10-18T13:09:41.263Z,24.60
2022-10-18T13:12:11.215Z,24.70
2022-10-18T13:14:59.192Z,25.50
2022-10-18T13:17:57.185Z,25.10
2022-10-18T13:20:28.628Z,24.80
2022-10-18T13:23:31.589Z,24.60
2022-10-18T13:26:24.957Z,25.10
2022-10-18T13:28:57.733Z,25.20
2022-10-18T13:31:47.770Z,24.50
2022-10-18T13:34:38.844Z,24.50
2022-10-18T13:37:11.647Z,24.60
2022-10-18T13:39:40.293Z,25.00
2022-10-18T13:42:15.670Z,25.50
2022-10-18T13:44:46.508Z,24.40
2022-10-18T13:47:15.605Z,24.10
2022-10-18T13:49:48.345Z,24.50
2022-10-18T13:52:54.492Z,25.00
2022-10-18T13:55:39.252Z,25.60
2022-10-18T13:58:24.396Z,25.10
2022-10-18T14:01:15.948Z,25.30
2022-10-18T14:04:20.214Z,24.90
2022-10-18T14:06:48.117Z,23.90
2022-10-18T14:09:43.588Z,24.10
2022-10-18T14:12:30.995Z,23.60
2022-10-18T14:15:24.776Z,23.00
2022-10-18T14:17:52.972Z,23.00
2022-10-18T14:21:12.335Z,23.30
2022-10-18T14:23:44.679Z,23.50
2022-10-18T14:26:16.964Z,23.10
2022-10-18T14:28:59.679Z,23.10
2022-10-18T14:31:27.641Z,23.10
2022-10-18T14:33:58.584Z,23.40
2022-10-18T14:36:29.435Z,23.10
2022-10-18T14:39:04.912Z,22.90
2022-10-18T14:41:47.292Z,22.90
2022-10-18T14:44:21.431Z,22.40
2022-10-18T14:46:55.831Z,22.30
2022-10-18T14:49:22.786Z,22.70
2022-10-18T14:51:52.567Z,22.60
2022-10-18T14:54:31.567Z,22.20
2022-10-18T14:57:00.731Z,22.00
2022-10-18T14:59:30.699Z,21.40
2022-10-18T15:02:28.711Z,21.10
2022-10-18T15:05:19.952Z,21.50
2022-10-18T15:07:47.856Z,21.80
2022-10-18T15:10:28.903Z,22.00
2022-10-18T15:13:16.282Z,21.70
2022-10-18T15:15:44.710Z,21.50
2022-10-18T15:18:22.135Z,21.90
2022-10-18T15:21:23.880Z,22.10
2022-10-18T15:23:51.772Z,21.60
2022-10-18T15:26:29.507Z,21.70
2022-10-18T15:29:01.497Z,22.00
2022-10-18T15:31:38.975Z,21.90
2022-10-18T15:34:21.997Z,21.80
2022-10-18T15:36:50.642Z,21.80
2022-10-18T15:39:35.709Z,21.60
2022-10-18T15:42:02.958Z,21.40
2022-10-18T15:44:32.329Z,21.20
2022-10-18T15:47:20.340Z,20.90
2022-10-18T15:49:55.451Z,20.60
2022-10-18T15:52:32.545Z,20.20
2022-10-18T15:55:31.012Z,19.90
2022-10-18T15:58:20.985Z,19.70
2022-10-18T16:00:49.428Z,19.50
2022-10-18T16:03:18.094Z,19.30
2022-10-18T16:05:45.742Z,19.10
2022-10-18T16:08:24.465Z,18.80
2022-10-18T16:10:51.956Z,18.50
2022-10-18T16:13:18.987Z,18.10
2022-10-18T16:15:45.989Z,17.80
2022-10-18T16:18:18.348Z,17.50
2022-10-18T16:20:46.139Z,17.30
2022-10-18T16:23:17.020Z,17.10
2022-10-18T16:25:44.046Z,16.90
2022-10-18T16:28:16.947Z,16.80
2022-10-18T16:30:48.814Z,16.70
2022-10-18T16:33:19.241Z,16.60
2022-10-18T16:35:48.871Z,16.50
2022-10-18T16:38:42.627Z,16.40
2022-10-18T16:41:10.627Z,16.30
2022-10-18T16:43:38.331Z,16.20
2022-10-18T16:46:05.963Z,16.00
2022-10-18T16:48:33.438Z,15.90
2022-10-18T16:51:00.441Z,15.80
2022-10-18T16:53:28.055Z,15.60
2022-10-18T16:55:58.335Z,15.50
2022-10-18T16:58:27.029Z,15.40
2022-10-18T17:00:54.027Z,15.30
2022-10-18T17:03:21.273Z,15.20
2022-10-18T17:05:48.038Z,15.10
2022-10-18T17:08:21.761Z,15.00
2022-10-18T17:10:50.050Z,15.00
2022-10-18T17:13:17.169Z,14.90
2022-10-18T17:15:44.325Z,14.80
2022-10-18T17:18:17.390Z,14.80
2022-10-18T17:20:45.479Z,14.70
2022-10-18T17:23:12.499Z,14.70
2022-10-18T17:25:51.529Z,14.70
2022-10-18T17:28:28.989Z,14.60
2022-10-18T17:30:55.920Z,14.60
2022-10-18T17:33:22.825Z,14.50
2022-10-18T17:35:49.860Z,14.40
2022-10-18T17:38:16.750Z,14.30
2022-10-18T17:40:43.592Z,14.30
2022-10-18T17:43:10.492Z,14.20
2022-10-18T17:45:37.928Z,14.10
2022-10-18T17:48:04.856Z,14.00
2022-10-18T17:50:31.679Z,14.00
2022-10-18T17:52:58.519Z,14.00
2022-10-18T17:55:25.259Z,14.00
2022-10-18T17:57:52.269Z,14.00
2022-10-18T18:00:19.163Z,13.90
2022-10-18T18:02:46.751Z,13.90
2022-10-18T18:05:13.579Z,13.80
2022-10-18T18:07:40.553Z,13.80
2022-10-18T18:10:08.416Z,13.80
2022-10-18T18:12:35.516Z,13.70
2022-10-18T18:15:02.560Z,13.60
2022-10-18T18:17:34.461Z,13.60
2022-10-18T18:20:07.438Z,13.50
2022-10-18T18:22:36.917Z,13.50
2022-10-18T18:25:07.334Z,13.50
2022-10-18T18:27:34.165Z,13.40
2022-10-18T18:30:00.969Z,13.50
2022-10-18T18:32:28.457Z,13.50
2022-10-18T18:34:55.247Z,13.50
2022-10-18T18:37:22.031Z,13.50
2022-10-18T18:39:48.969Z,13.50
2022-10-18T18:42:15.899Z,13.50
2022-10-18T18:44:45.908Z,13.50
2022-10-18T18:47:13.576Z,13.40
2022-10-18T18:49:40.622Z,13.40
2022-10-18T18:52:07.608Z,13.40
2022-10-18T18:54:34.435Z,13.40
2022-10-18T18:57:05.207Z,13.30
2022-10-18T18:59:32.041Z,13.30
2022-10-18T19:01:59.116Z,13.20
2022-10-18T19:04:26.344Z,13.20
2022-10-18T19:06:53.247Z,13.10
2022-10-18T19:09:23.004Z,13.10
2022-10-18T19:11:54.813Z,13.10
2022-10-18T19:16:57.519Z,13.00
2022-10-18T19:19:26.314Z,13.00
2022-10-18T19:21:59.108Z,13.00
2022-10-18T19:24:28.209Z,12.90
2022-10-18T19:27:00.787Z,12.90
2022-10-18T19:29:33.295Z,12.90
2022-10-18T19:32:02.076Z,12.90
2022-10-18T19:34:30.521Z,12.90
2022-10-18T19:36:57.423Z,12.90
2022-10-18T19:39:26.622Z,12.90
2022-10-18T19:41:56.574Z,12.90
2022-10-18T19:44:25.270Z,12.90
2022-10-18T19:46:52.194Z,12.90
2022-10-18T19:49:19.060Z,12.90
2022-10-18T19:51:46.016Z,13.00
2022-10-18T19:54:14.118Z,12.90
2022-10-18T19:56:42.101Z,12.80
2022-10-18T19:59:10.322Z,12.80
2022-10-18T20:01:37.811Z,12.80
2022-10-18T20:04:05.138Z,12.80
2022-10-18T20:06:32.388Z,12.80
2022-10-18T20:08:59.590Z,12.70
2022-10-18T20:11:28.681Z,12.70
2022-10-18T20:13:56.420Z,12.60
2022-10-18T20:16:28.546Z,12.60
2022-10-18T20:19:01.221Z,12.50
2022-10-18T20:21:30.057Z,12.50
2022-10-18T20:23:57.112Z,12.40
2022-10-18T20:26:25.541Z,12.40
2022-10-18T20:28:57.144Z,12.40
2022-10-18T20:31:32.291Z,12.40
2022-10-18T20:34:02.054Z,12.30
2022-10-18T20:36:30.965Z,12.20
2022-10-18T20:38:58.147Z,12.20
2022-10-18T20:41:27.893Z,12.30
2022-10-18T20:43:59.900Z,12.40
2022-10-18T20:46:29.599Z,12.40
2022-10-18T20:48:56.400Z,12.30
2022-10-18T20:51:24.234Z,12.30
2022-10-18T20:53:51.757Z,12.20
2022-10-18T20:56:21.414Z,12.20
2022-10-18T20:58:50.550Z,12.20
2022-10-18T21:01:27.514Z,12.20
2022-10-18T21:03:58.174Z,12.10
2022-10-18T21:06:34.278Z,12.10
2022-10-18T21:09:03.888Z,12.10
2022-10-18T21:11:34.335Z,12.10
2022-10-18T21:14:02.857Z,12.10
2022-10-18T21:16:34.472Z,12.00
2022-10-18T21:19:11.340Z,11.90
2022-10-18T21:21:38.162Z,11.90
2022-10-18T21:24:07.710Z,11.90
2022-10-18T21:26:35.971Z,11.90
2022-10-18T21:29:04.000Z,12.00
2022-10-18T21:31:34.926Z,12.00
2022-10-18T21:34:05.008Z,12.00
2022-10-18T21:36:34.453Z,11.90
2022-10-18T21:39:03.495Z,11.90
2022-10-18T21:41:31.410Z,11.80
2022-10-18T21:43:58.274Z,11.70
2022-10-18T21:46:28.572Z,11.90
2022-10-18T21:48:57.047Z,11.90
2022-10-18T21:51:26.323Z,11.80
2022-10-18T21:53:55.892Z,11.60
2022-10-18T21:56:34.156Z,11.50
2022-10-18T21:59:01.822Z,11.40
2022-10-18T22:01:32.414Z,11.40
2022-10-18T22:04:01.578Z,11.30
2022-10-18T22:06:32.235Z,11.20
2022-10-18T22:09:01.667Z,11.20
2022-10-18T22:11:35.361Z,11.20
2022-10-18T22:14:02.198Z,11.10
2022-10-18T22:16:29.038Z,11.10
2022-10-18T22:19:01.202Z,11.10
2022-10-18T22:21:29.199Z,11.10
2022-10-18T22:23:57.214Z,11.10
2022-10-18T22:26:26.899Z,11.10
2022-10-18T22:28:59.804Z,11.10
2022-10-18T22:31:28.945Z,11.20
2022-10-18T22:33:57.673Z,11.20
2022-10-18T22:36:25.209Z,11.10
2022-10-18T22:38:52.461Z,11.10
2022-10-18T22:41:19.735Z,11.20
2022-10-18T22:43:47.791Z,11.30
2022-10-18T22:46:15.588Z,11.20
2022-10-18T22:48:43.796Z,11.00
2022-10-18T22:51:11.289Z,10.90
2022-10-18T22:53:39.786Z,10.80
2022-10-18T22:56:07.561Z,10.80
2022-10-18T22:58:34.424Z,10.80
2022-10-18T23:01:04.108Z,10.90
2022-10-18T23:03:31.352Z,10.90
2022-10-18T23:05:58.844Z,11.00
2022-10-18T23:08:26.275Z,11.10
2022-10-18T23:10:55.557Z,11.20
2022-10-18T23:13:24.210Z,11.30
2022-10-18T23:15:51.140Z,11.40
2022-10-18T23:18:18.673Z,11.50
2022-10-18T23:20:45.812Z,11.50
2022-10-18T23:23:13.584Z,11.40
2022-10-18T23:25:40.591Z,11.50
2022-10-18T23:28:07.439Z,11.40
2022-10-18T23:30:37.228Z,11.40
2022-10-18T23:33:04.121Z,11.30
2022-10-18T23:35:30.865Z,11.30
2022-10-18T23:37:57.638Z,11.30
2022-10-18T23:40:24.561Z,11.40
2022-10-18T23:42:51.307Z,11.40
2022-10-18T23:45:18.162Z,11.40
2022-10-18T23:47:44.920Z,11.40
2022-10-18T23:50:11.834Z,11.50
2022-10-18T23:52:38.659Z,11.40
2022-10-18T23:55:05.991Z,11.40
2022-10-18T23:57:33.077Z,11.40
